sensor_id;sensor_type;location;lat;lon;timestamp;pressure;altitude;pressure_sealevel;temperature;humidity
48386;BME280;34644;47.964;7.982;2024-01-07T00:01:01;95940.75;;;16.84;57.33
48386;BME280;34644;47.964;7.982;2024-01-07T00:08:02;95947.16;;;16.83;57.21
48386;BME280;34644;47.964;7.982;2024-01-07T00:15:02;95949.53;;;16.85;57.33
48386;BME280;34644;47.964;7.982;2024-01-07T00:22:02;95951.41;;;16.84;57.21
48386;BME280;34644;47.964;7.982;2024-01-07T00:29:03;95947.94;;;16.83;57.35
48386;BME280;34644;47.964;7.982;2024-01-07T00:36:03;95953.25;;;16.83;57.46
48386;BME280;34644;47.964;7.982;2024-01-07T00:43:03;95947.63;;;16.85;57.41
48386;BME280;34644;47.964;7.982;2024-01-07T00:50:04;95952.97;;;16.85;57.43
48386;BME280;34644;47.964;7.982;2024-01-07T00:57:04;95948.75;;;16.84;57.51
48386;BME280;34644;47.964;7.982;2024-01-07T01:04:04;95956.72;;;16.84;57.42
48386;BME280;34644;47.964;7.982;2024-01-07T01:11:05;95956.72;;;16.84;57.55
48386;BME280;34644;47.964;7.982;2024-01-07T01:18:05;95957.50;;;16.85;57.54
48386;BME280;34644;47.964;7.982;2024-01-07T01:25:05;95964.41;;;16.86;57.62
48386;BME280;34644;47.964;7.982;2024-01-07T01:32:06;95966.56;;;16.83;57.71
48386;BME280;34644;47.964;7.982;2024-01-07T01:39:07;95970.03;;;16.84;57.57
48386;BME280;34644;47.964;7.982;2024-01-07T01:46:07;95960.94;;;16.85;57.49
48386;BME280;34644;47.964;7.982;2024-01-07T01:53:08;95964.41;;;16.86;57.60
48386;BME280;34644;47.964;7.982;2024-01-07T02:00:08;95968.16;;;16.85;57.67
48386;BME280;34644;47.964;7.982;2024-01-07T02:07:08;95965.50;;;16.85;57.57
48386;BME280;34644;47.964;7.982;2024-01-07T02:14:09;95976.13;;;16.85;57.73
48386;BME280;34644;47.964;7.982;2024-01-07T02:21:09;95985.72;;;16.86;57.79
48386;BME280;34644;47.964;7.982;2024-01-07T02:28:09;95976.13;;;16.85;57.72
48386;BME280;34644;47.964;7.982;2024-01-07T02:35:10;95972.41;;;16.86;57.92
48386;BME280;34644;47.964;7.982;2024-01-07T02:42:10;95985.41;;;16.87;57.86
48386;BME280;34644;47.964;7.982;2024-01-07T02:49:10;95974.78;;;16.87;58.02
48386;BME280;34644;47.964;7.982;2024-01-07T02:56:11;95974.00;;;16.87;57.91
48386;BME280;34644;47.964;7.982;2024-01-07T03:03:11;95976.38;;;16.88;57.96
48386;BME280;34644;47.964;7.982;2024-01-07T03:10:11;95976.38;;;16.88;57.98
48386;BME280;34644;47.964;7.982;2024-01-07T03:17:11;95974.50;;;16.89;57.93
48386;BME280;34644;47.964;7.982;2024-01-07T03:24:12;95972.13;;;16.87;58.01
48386;BME280;34644;47.964;7.982;2024-01-07T03:31:13;95992.63;;;16.87;58.05
48386;BME280;34644;47.964;7.982;2024-01-07T03:38:14;95975.06;;;16.86;58.16
48386;BME280;34644;47.964;7.982;2024-01-07T03:45:14;95990.22;;;16.85;58.32
48386;BME280;34644;47.964;7.982;2024-01-07T03:52:15;95994.50;;;16.86;58.10
48386;BME280;34644;47.964;7.982;2024-01-07T03:59:15;95993.69;;;16.86;58.18
48386;BME280;34644;47.964;7.982;2024-01-07T04:06:15;96001.38;;;16.87;58.16
48386;BME280;34644;47.964;7.982;2024-01-07T04:13:15;95992.63;;;16.87;58.20
48386;BME280;34644;47.964;7.982;2024-01-07T04:20:16;96000.59;;;16.87;58.21
48386;BME280;34644;47.964;7.982;2024-01-07T04:27:16;95998.72;;;16.87;58.14
48386;BME280;34644;47.964;7.982;2024-01-07T04:34:16;96002.50;;;16.86;58.25
48386;BME280;34644;47.964;7.982;2024-01-07T04:41:16;95998.19;;;16.85;58.39
48386;BME280;34644;47.964;7.982;2024-01-07T04:48:17;96006.91;;;16.72;58.60
48386;BME280;34644;47.964;7.982;2024-01-07T04:55:17;96011.50;;;16.66;58.92
48386;BME280;34644;47.964;7.982;2024-01-07T05:02:17;96013.19;;;16.62;59.18
48386;BME280;34644;47.964;7.982;2024-01-07T05:09:17;96014.75;;;16.63;59.45
48386;BME280;34644;47.964;7.982;2024-01-07T05:16:21;96023.81;;;16.62;59.44
48386;BME280;34644;47.964;7.982;2024-01-07T05:23:21;96020.34;;;16.61;59.58
48386;BME280;34644;47.964;7.982;2024-01-07T05:30:21;96027.25;;;16.62;59.56
48386;BME280;34644;47.964;7.982;2024-01-07T05:37:22;96034.66;;;16.66;59.65
48386;BME280;34644;47.964;7.982;2024-01-07T05:44:22;96040.78;;;16.66;59.63
48386;BME280;34644;47.964;7.982;2024-01-07T05:51:22;96042.66;;;16.66;59.70
48386;BME280;34644;47.964;7.982;2024-01-07T05:58:23;96048.75;;;16.66;59.55
48386;BME280;34644;47.964;7.982;2024-01-07T06:05:23;96045.31;;;16.66;59.74
48386;BME280;34644;47.964;7.982;2024-01-07T06:12:24;96051.69;;;16.64;59.69
48386;BME280;34644;47.964;7.982;2024-01-07T06:19:24;96056.75;;;16.66;59.75
48386;BME280;34644;47.964;7.982;2024-01-07T06:26:25;96071.63;;;16.67;59.64
48386;BME280;34644;47.964;7.982;2024-01-07T06:33:25;96064.44;;;16.68;59.66
48386;BME280;34644;47.964;7.982;2024-01-07T06:40:25;96075.56;;;16.70;59.58
48386;BME280;34644;47.964;7.982;2024-01-07T06:47:25;96076.13;;;16.67;59.69
48386;BME280;34644;47.964;7.982;2024-01-07T06:54:26;96079.31;;;16.69;59.60
48386;BME280;34644;47.964;7.982;2024-01-07T07:01:26;96082.00;;;16.69;59.44
48386;BME280;34644;47.964;7.982;2024-01-07T07:08:26;96093.13;;;16.71;59.47
48386;BME280;34644;47.964;7.982;2024-01-07T07:15:26;96096.63;;;16.66;59.68
48386;BME280;34644;47.964;7.982;2024-01-07T07:22:28;96102.72;;;16.72;59.39
48386;BME280;34644;47.964;7.982;2024-01-07T07:29:29;96102.41;;;16.73;59.55
48386;BME280;34644;47.964;7.982;2024-01-07T07:36:29;96113.56;;;16.75;59.61
48386;BME280;34644;47.964;7.982;2024-01-07T07:43:29;96117.28;;;16.74;59.73
48386;BME280;34644;47.964;7.982;2024-01-07T07:50:30;96126.59;;;16.77;59.74
48386;BME280;34644;47.964;7.982;2024-01-07T07:57:30;96134.06;;;16.75;59.81
48386;BME280;34644;47.964;7.982;2024-01-07T08:04:30;96137.50;;;16.75;59.83
48386;BME280;34644;47.964;7.982;2024-01-07T08:11:31;96140.97;;;16.76;59.87
48386;BME280;34644;47.964;7.982;2024-01-07T08:18:31;96157.22;;;16.74;59.83
48386;BME280;34644;47.964;7.982;2024-01-07T08:25:32;96150.81;;;16.75;59.76
48386;BME280;34644;47.964;7.982;2024-01-07T08:32:32;96153.47;;;16.75;59.82
48386;BME280;34644;47.964;7.982;2024-01-07T08:39:32;96159.84;;;16.79;59.61
48386;BME280;34644;47.964;7.982;2024-01-07T08:46:32;96157.94;;;16.80;59.58
48386;BME280;34644;47.964;7.982;2024-01-07T08:53:33;96161.13;;;16.82;59.33
48386;BME280;34644;47.964;7.982;2024-01-07T09:00:33;96166.44;;;16.82;59.32
48386;BME280;34644;47.964;7.982;2024-01-07T09:07:33;96179.75;;;16.82;59.25
48386;BME280;34644;47.964;7.982;2024-01-07T09:14:33;96186.94;;;16.81;59.24
48386;BME280;34644;47.964;7.982;2024-01-07T09:21:34;96194.66;;;16.83;59.10
48386;BME280;34644;47.964;7.982;2024-01-07T09:28:34;96193.34;;;16.80;59.19
48386;BME280;34644;47.964;7.982;2024-01-07T09:35:34;96207.94;;;16.83;59.05
48386;BME280;34644;47.964;7.982;2024-01-07T09:42:35;96206.88;;;16.84;58.91
48386;BME280;34644;47.964;7.982;2024-01-07T09:49:35;96208.22;;;16.81;58.96
48386;BME280;34644;47.964;7.982;2024-01-07T09:56:38;96210.91;;;16.81;58.99
48386;BME280;34644;47.964;7.982;2024-01-07T10:03:41;96210.63;;;16.83;58.75
48386;BME280;34644;47.964;7.982;2024-01-07T10:10:41;96210.63;;;16.83;58.77
48386;BME280;34644;47.964;7.982;2024-01-07T10:17:41;96211.41;;;16.83;58.81
48386;BME280;34644;47.964;7.982;2024-01-07T10:24:42;96209.56;;;16.84;58.64
48386;BME280;34644;47.964;7.982;2024-01-07T10:31:45;96209.84;;;16.82;58.80
48386;BME280;34644;47.964;7.982;2024-01-07T10:38:46;96200.25;;;16.81;58.71
48386;BME280;34644;47.964;7.982;2024-01-07T10:45:47;96209.56;;;16.84;58.69
48386;BME280;34644;47.964;7.982;2024-01-07T10:52:50;96208.72;;;16.83;58.60
48386;BME280;34644;47.964;7.982;2024-01-07T10:59:55;96199.69;;;16.85;58.44
48386;BME280;34644;47.964;7.982;2024-01-07T11:07:00;96199.19;;;16.82;58.53
48386;BME280;34644;47.964;7.982;2024-01-07T11:14:03;96196.25;;;16.84;58.46
48386;BME280;34644;47.964;7.982;2024-01-07T11:21:04;96193.28;;;16.86;58.33
48386;BME280;34644;47.964;7.982;2024-01-07T11:28:05;96188.06;;;16.75;58.59
48386;BME280;34644;47.964;7.982;2024-01-07T11:35:06;96194.47;;;16.74;58.75
48386;BME280;34644;47.964;7.982;2024-01-07T11:42:07;96182.00;;;16.70;59.02
48386;BME280;34644;47.964;7.982;2024-01-07T11:49:08;96178.56;;;16.69;59.21
48386;BME280;34644;47.964;7.982;2024-01-07T11:56:08;96185.97;;;16.72;59.33
48386;BME280;34644;47.964;7.982;2024-01-07T12:03:09;96183.53;;;16.76;59.37
48386;BME280;34644;47.964;7.982;2024-01-07T12:10:09;96187.28;;;16.75;59.59
48386;BME280;34644;47.964;7.982;2024-01-07T12:17:11;96190.16;;;16.78;59.59
48386;BME280;34644;47.964;7.982;2024-01-07T12:24:12;96191.22;;;16.77;59.63
48386;BME280;34644;47.964;7.982;2024-01-07T12:31:13;96194.44;;;16.79;59.64
48386;BME280;34644;47.964;7.982;2024-01-07T12:38:14;96197.59;;;16.81;59.61
48386;BME280;34644;47.964;7.982;2024-01-07T12:45:15;96201.59;;;16.79;59.69
48386;BME280;34644;47.964;7.982;2024-01-07T12:52:15;96192.75;;;16.83;59.60
48386;BME280;34644;47.964;7.982;2024-01-07T12:59:15;96203.69;;;16.82;59.56
48386;BME280;34644;47.964;7.982;2024-01-07T13:06:15;96205.28;;;16.83;59.44
48386;BME280;34644;47.964;7.982;2024-01-07T13:13:16;96204.22;;;16.84;59.51
48386;BME280;34644;47.964;7.982;2024-01-07T13:20:17;96209.56;;;16.84;59.46
48386;BME280;34644;47.964;7.982;2024-01-07T13:27:20;96215.94;;;16.83;59.95
48386;BME280;34644;47.964;7.982;2024-01-07T13:34:22;96210.88;;;16.87;59.89
48386;BME280;34644;47.964;7.982;2024-01-07T13:41:22;96219.63;;;16.87;59.94
48386;BME280;34644;47.964;7.982;2024-01-07T13:48:23;96216.97;;;16.87;59.85
48386;BME280;34644;47.964;7.982;2024-01-07T13:55:24;96226.56;;;16.88;59.63
48386;BME280;34644;47.964;7.982;2024-01-07T14:02:24;96222.28;;;16.87;59.63
48386;BME280;34644;47.964;7.982;2024-01-07T14:09:24;96233.75;;;16.88;59.55
48386;BME280;34644;47.964;7.982;2024-01-07T14:16:25;96242.00;;;16.86;59.63
48386;BME280;34644;47.964;7.982;2024-01-07T14:23:25;96244.16;;;16.84;59.61
48386;BME280;34644;47.964;7.982;2024-01-07T14:30:25;96255.56;;;16.85;59.71
48386;BME280;34644;47.964;7.982;2024-01-07T14:37:25;96260.13;;;16.84;59.64
48386;BME280;34644;47.964;7.982;2024-01-07T14:44:27;96261.19;;;16.83;59.58
48386;BME280;34644;47.964;7.982;2024-01-07T14:51:28;96269.94;;;16.83;59.58
48386;BME280;34644;47.964;7.982;2024-01-07T14:58:28;96278.22;;;16.82;59.49
48386;BME280;34644;47.964;7.982;2024-01-07T15:05:28;96294.72;;;16.84;59.53
48386;BME280;34644;47.964;7.982;2024-01-07T15:12:29;96299.22;;;16.83;59.44
48386;BME280;34644;47.964;7.982;2024-01-07T15:19:35;96310.16;;;16.82;59.27
48386;BME280;34644;47.964;7.982;2024-01-07T15:26:35;96317.06;;;16.83;59.39
48386;BME280;34644;47.964;7.982;2024-01-07T15:33:36;96318.38;;;16.86;59.08
48386;BME280;34644;47.964;7.982;2024-01-07T15:40:36;96334.34;;;16.86;59.14
48386;BME280;34644;47.964;7.982;2024-01-07T15:47:36;96340.75;;;16.85;59.09
48386;BME280;34644;47.964;7.982;2024-01-07T15:54:36;96343.94;;;16.87;58.92
48386;BME280;34644;47.964;7.982;2024-01-07T16:01:36;96354.03;;;16.85;58.94
48386;BME280;34644;47.964;7.982;2024-01-07T16:08:37;96361.50;;;16.88;58.91
48386;BME280;34644;47.964;7.982;2024-01-07T16:15:37;96372.06;;;16.19;51.56
48386;BME280;34644;47.964;7.982;2024-01-07T16:22:37;96373.84;;;16.68;54.38
48386;BME280;34644;47.964;7.982;2024-01-07T16:29:37;96379.44;;;16.72;55.12
48386;BME280;34644;47.964;7.982;2024-01-07T16:36:42;96383.16;;;16.71;55.82
48386;BME280;34644;47.964;7.982;2024-01-07T16:43:42;96387.97;;;16.69;56.00
48386;BME280;34644;47.964;7.982;2024-01-07T16:50:42;96391.47;;;16.64;56.56
48386;BME280;34644;47.964;7.982;2024-01-07T16:57:43;96409.03;;;16.60;57.20
48386;BME280;34644;47.964;7.982;2024-01-07T17:04:43;96416.97;;;16.65;57.36
48386;BME280;34644;47.964;7.982;2024-01-07T17:11:43;96418.59;;;16.66;57.59
48386;BME280;34644;47.964;7.982;2024-01-07T17:18:44;96423.63;;;16.68;57.75
48386;BME280;34644;47.964;7.982;2024-01-07T17:25:44;96435.03;;;16.73;57.94
48386;BME280;34644;47.964;7.982;2024-01-07T17:32:45;96434.22;;;16.73;58.00
48386;BME280;34644;47.964;7.982;2024-01-07T17:39:45;96445.91;;;16.77;57.94
48386;BME280;34644;47.964;7.982;2024-01-07T17:46:46;96455.50;;;16.73;58.17
48386;BME280;34644;47.964;7.982;2024-01-07T17:53:47;96464.59;;;16.72;58.34
48386;BME280;34644;47.964;7.982;2024-01-07T18:00:47;96459.78;;;16.74;58.11
48386;BME280;34644;47.964;7.982;2024-01-07T18:07:47;96477.06;;;16.76;58.22
48386;BME280;34644;47.964;7.982;2024-01-07T18:14:48;96476.53;;;16.79;58.19
48386;BME280;34644;47.964;7.982;2024-01-07T18:21:49;96476.25;;;16.76;58.18
48386;BME280;34644;47.964;7.982;2024-01-07T18:28:49;96487.16;;;16.79;58.29
48386;BME280;34644;47.964;7.982;2024-01-07T18:35:50;96492.22;;;16.81;58.19
48386;BME280;34644;47.964;7.982;2024-01-07T18:42:50;96500.97;;;16.81;58.12
48386;BME280;34644;47.964;7.982;2024-01-07T18:49:51;96507.09;;;16.82;58.16
48386;BME280;34644;47.964;7.982;2024-01-07T18:56:51;96517.75;;;16.82;58.04
48386;BME280;34644;47.964;7.982;2024-01-07T19:03:51;96517.19;;;16.85;57.95
48386;BME280;34644;47.964;7.982;2024-01-07T19:10:51;96519.59;;;16.87;57.89
48386;BME280;34644;47.964;7.982;2024-01-07T19:17:52;96530.25;;;16.87;57.87
48386;BME280;34644;47.964;7.982;2024-01-07T19:24:52;96536.91;;;16.84;57.95
48386;BME280;34644;47.964;7.982;2024-01-07T19:31:52;96546.47;;;16.85;57.79
48386;BME280;34644;47.964;7.982;2024-01-07T19:38:52;96551.53;;;16.87;57.87
48386;BME280;34644;47.964;7.982;2024-01-07T19:45:53;96555.00;;;16.87;57.76
48386;BME280;34644;47.964;7.982;2024-01-07T19:52:53;96554.72;;;16.89;57.73
48386;BME280;34644;47.964;7.982;2024-01-07T19:59:54;96563.53;;;16.89;57.59
48386;BME280;34644;47.964;7.982;2024-01-07T20:06:54;96561.13;;;16.88;57.62
48386;BME280;34644;47.964;7.982;2024-01-07T20:13:57;96563.78;;;16.88;57.63
48386;BME280;34644;47.964;7.982;2024-01-07T20:20:57;96566.72;;;16.86;57.60
48386;BME280;34644;47.964;7.982;2024-01-07T20:27:57;96573.63;;;16.87;57.54
48386;BME280;34644;47.964;7.982;2024-01-07T20:34:58;96577.38;;;16.86;57.61
48386;BME280;34644;47.964;7.982;2024-01-07T20:41:58;96577.38;;;16.86;57.52
48386;BME280;34644;47.964;7.982;2024-01-07T20:48:58;96594.13;;;16.87;57.49
48386;BME280;34644;47.964;7.982;2024-01-07T20:55:59;96600.25;;;16.87;57.41
48386;BME280;34644;47.964;7.982;2024-01-07T21:02:59;96598.13;;;16.89;57.20
48386;BME280;34644;47.964;7.982;2024-01-07T21:09:59;96597.84;;;16.91;57.25
48386;BME280;34644;47.964;7.982;2024-01-07T21:16:59;96601.81;;;16.93;57.06
48386;BME280;34644;47.964;7.982;2024-01-07T21:24:00;96604.19;;;16.95;56.89
48386;BME280;34644;47.964;7.982;2024-01-07T21:31:00;96610.91;;;16.87;56.83
48386;BME280;34644;47.964;7.982;2024-01-07T21:38:02;96612.22;;;16.85;57.29
48386;BME280;34644;47.964;7.982;2024-01-07T21:45:03;96620.47;;;16.83;57.41
48386;BME280;34644;47.964;7.982;2024-01-07T21:52:04;96621.81;;;16.86;57.34
48386;BME280;34644;47.964;7.982;2024-01-07T21:59:05;96617.81;;;16.88;57.32
48386;BME280;34644;47.964;7.982;2024-01-07T22:06:05;96625.00;;;16.93;57.21
48386;BME280;34644;47.964;7.982;2024-01-07T22:13:06;96631.63;;;16.95;57.07
48386;BME280;34644;47.964;7.982;2024-01-07T22:20:06;96629.75;;;16.96;57.12
48386;BME280;34644;47.964;7.982;2024-01-07T22:27:07;96635.88;;;16.96;56.92
48386;BME280;34644;47.964;7.982;2024-01-07T22:34:08;96639.63;;;16.95;56.97
48386;BME280;34644;47.964;7.982;2024-01-07T22:41:08;96634.56;;;16.94;56.90
48386;BME280;34644;47.964;7.982;2024-01-07T22:48:09;96637.50;;;16.92;56.87
48386;BME280;34644;47.964;7.982;2024-01-07T22:55:09;96646.81;;;16.90;56.80
48386;BME280;34644;47.964;7.982;2024-01-07T23:02:09;96643.66;;;16.88;56.92
48386;BME280;34644;47.964;7.982;2024-01-07T23:09:09;96654.03;;;16.89;56.83
48386;BME280;34644;47.964;7.982;2024-01-07T23:16:11;96649.75;;;16.88;56.78
48386;BME280;34644;47.964;7.982;2024-01-07T23:23:11;96651.63;;;16.88;56.80
48386;BME280;34644;47.964;7.982;2024-01-07T23:30:12;96657.22;;;16.86;56.87
48386;BME280;34644;47.964;7.982;2024-01-07T23:37:13;96653.75;;;16.86;56.86
48386;BME280;34644;47.964;7.982;2024-01-07T23:44:13;96652.41;;;16.83;56.88
48386;BME280;34644;47.964;7.982;2024-01-07T23:51:13;96655.88;;;16.83;56.82
48386;BME280;34644;47.964;7.982;2024-01-07T23:58:14;96662.28;;;16.82;56.77
